Time;durP1;ratioP1;P1;durP2;ratioP2;P2;SDS_P1;SDS_P2;PMS_P1;PMS_P2;Temp;Humidity;BMP_temperature;BMP_pressure;BME280_temperature;BME280_humidity;BME280_pressure;Samples;Min_cycle;Max_cycle;Signal;HPM_P1;HPM_P2
2023/03/20 00:00:25;;;;;;;25.65;13.45;;;8.90;99.90;;;;;;5011689;28;20356;-88
2023/03/20 00:02:51;;;;;;;25.25;13.73;;;9.00;99.90;;;;;;5010981;28;20050;-89
2023/03/20 00:05:22;;;;;;;28.42;14.35;;;8.90;99.90;;;;;;5025131;28;20057;-88
2023/03/20 00:07:48;;;;;;;29.02;16.08;;;8.90;99.90;;;;;;5007111;28;20069;-88
2023/03/20 00:10:15;;;;;;;29.88;16.33;;;8.90;99.90;;;;;;5013626;28;20030;-88
2023/03/20 00:12:42;;;;;;;28.48;16.90;;;8.90;99.90;;;;;;5015677;28;20494;-88
2023/03/20 00:15:29;;;;;;;34.05;18.80;;;8.90;99.90;;;;;;5017694;28;20034;-88
2023/03/20 00:17:56;;;;;;;36.67;20.83;;;8.90;99.90;;;;;;5022256;28;20030;-88
2023/03/20 00:20:22;;;;;;;34.97;18.95;;;8.90;99.90;;;;;;5011519;28;20133;-88
2023/03/20 00:22:49;;;;;;;38.15;21.35;;;8.80;99.90;;;;;;5006446;28;20123;-88
2023/03/20 00:25:18;;;;;;;40.13;19.33;;;8.80;99.90;;;;;;5029070;28;20030;-88
2023/03/20 00:27:44;;;;;;;30.58;17.73;;;8.80;99.90;;;;;;5009233;28;20061;-88
2023/03/20 00:30:29;;;;;;;29.63;16.60;;;8.80;99.90;;;;;;5009907;28;20064;-89
2023/03/20 00:32:57;;;;;;;32.78;16.50;;;8.80;99.90;;;;;;5006370;28;20041;-89
2023/03/20 00:35:30;;;;;;;31.45;14.85;;;8.70;99.90;;;;;;5007391;28;20030;-88
2023/03/20 00:37:57;;;;;;;29.48;14.70;;;8.70;99.90;;;;;;5007755;28;20030;-88
2023/03/20 00:40:30;;;;;;;32.17;15.25;;;8.70;99.90;;;;;;5012853;28;20030;-88
2023/03/20 00:43:00;;;;;;;33.10;15.75;;;8.70;99.90;;;;;;5006063;28;20034;-87
2023/03/20 00:45:28;;;;;;;35.85;16.80;;;8.60;99.90;;;;;;4999871;28;20102;-88
2023/03/20 00:47:56;;;;;;;37.78;15.55;;;8.70;99.90;;;;;;5010941;28;20545;-88
2023/03/20 00:50:29;;;;;;;31.15;14.90;;;8.70;99.90;;;;;;5027044;28;20109;-88
2023/03/20 00:52:56;;;;;;;27.05;13.43;;;8.70;99.90;;;;;;5009235;28;20034;-86
2023/03/20 00:55:24;;;;;;;29.40;14.80;;;8.70;99.90;;;;;;5007154;28;20040;-87
2023/03/20 00:57:54;;;;;;;25.83;12.88;;;8.70;99.90;;;;;;5008287;28;20050;-87
2023/03/20 01:00:40;;;;;;;28.60;14.45;;;8.70;99.90;;;;;;5012951;28;20033;-88
2023/03/20 01:03:21;;;;;;;35.45;15.40;;;8.70;99.90;;;;;;5011269;28;20022;-88
2023/03/20 01:05:47;;;;;;;31.08;13.90;;;8.70;99.90;;;;;;5008310;28;20078;-88
2023/03/20 01:08:19;;;;;;;26.48;15.20;;;8.70;99.90;;;;;;5009421;28;20034;-88
2023/03/20 01:10:45;;;;;;;25.27;14.55;;;8.70;99.90;;;;;;5008909;28;20033;-88
2023/03/20 01:13:21;;;;;;;28.67;14.48;;;8.70;99.90;;;;;;5012140;28;20379;-88
2023/03/20 01:15:48;;;;;;;32.08;15.73;;;8.70;99.90;;;;;;5008524;28;20058;-88
2023/03/20 01:18:15;;;;;;;33.08;15.25;;;8.70;99.90;;;;;;5008835;28;20056;-87
2023/03/20 01:20:42;;;;;;;28.90;13.30;;;8.70;99.90;;;;;;5000173;28;20030;-88
2023/03/20 01:23:08;;;;;;;24.88;12.65;;;8.70;99.90;;;;;;5007197;28;20050;-87
2023/03/20 01:25:34;;;;;;;31.17;13.68;;;8.70;99.90;;;;;;5008567;28;20022;-88
2023/03/20 01:28:00;;;;;;;28.23;12.50;;;8.70;99.90;;;;;;5008664;28;20034;-88
2023/03/20 01:30:29;;;;;;;24.20;10.98;;;8.70;99.90;;;;;;5011617;28;20069;-88
2023/03/20 01:32:58;;;;;;;25.10;10.05;;;8.70;99.90;;;;;;5009177;28;20041;-88
2023/03/20 01:35:26;;;;;;;24.60;10.38;;;8.70;99.90;;;;;;5026097;28;20026;-88
2023/03/20 01:37:53;;;;;;;26.00;9.65;;;8.70;99.90;;;;;;5014415;28;20104;-88
2023/03/20 01:40:43;;;;;;;21.23;9.00;;;8.70;99.90;;;;;;4995199;28;20032;-88
2023/03/20 01:43:15;;;;;;;22.50;9.77;;;8.70;99.90;;;;;;5016025;28;20030;-87
2023/03/20 01:45:52;;;;;;;19.48;8.85;;;8.60;99.90;;;;;;5004504;28;20030;-88
2023/03/20 01:48:19;;;;;;;18.73;8.60;;;8.60;99.90;;;;;;5006607;28;20089;-87
2023/03/20 01:50:45;;;;;;;22.00;9.80;;;8.60;99.90;;;;;;5010784;28;20021;-88
2023/03/20 01:53:21;;;;;;;17.10;8.73;;;8.60;99.90;;;;;;5008071;28;20407;-88
2023/03/20 01:55:50;;;;;;;19.52;8.30;;;8.60;99.90;;;;;;5006991;28;20031;-88
2023/03/20 01:58:21;;;;;;;26.75;10.07;;;8.50;99.90;;;;;;5010603;28;20510;-88
2023/03/20 02:00:50;;;;;;;20.80;8.20;;;8.50;99.90;;;;;;5011138;28;20038;-88
2023/03/20 02:03:18;;;;;;;20.30;8.13;;;8.50;99.90;;;;;;5004906;28;20034;-88
2023/03/20 02:05:44;;;;;;;16.23;7.85;;;8.50;99.90;;;;;;4998103;28;20095;-88
2023/03/20 02:08:29;;;;;;;19.45;9.18;;;8.50;99.90;;;;;;5006322;28;20183;-88
2023/03/20 02:10:57;;;;;;;15.93;8.13;;;8.50;99.90;;;;;;5009779;28;20128;-86
2023/03/20 02:13:25;;;;;;;23.77;8.75;;;8.50;99.90;;;;;;5007195;28;20080;-87
2023/03/20 02:16:08;;;;;;;16.83;7.60;;;8.40;99.90;;;;;;5008781;28;20030;-88
2023/03/20 02:18:34;;;;;;;18.50;7.53;;;8.50;99.90;;;;;;5008248;28;20116;-88
2023/03/20 02:21:06;;;;;;;16.73;7.18;;;8.40;99.90;;;;;;4999639;28;20463;-88
2023/03/20 02:23:40;;;;;;;20.48;7.50;;;8.40;99.90;;;;;;5009373;28;20026;-88
2023/03/20 02:26:27;;;;;;;16.45;6.88;;;8.40;99.90;;;;;;5004016;28;20026;-88
2023/03/20 02:29:41;;;;;;;16.48;6.43;;;8.40;99.90;;;;;;5000675;28;20022;-88
2023/03/20 02:32:31;;;;;;;18.52;7.30;;;8.30;99.90;;;;;;4996464;28;20035;-88
2023/03/20 02:35:05;;;;;;;16.60;7.10;;;8.30;99.90;;;;;;5007268;28;20041;-88
2023/03/20 02:38:00;;;;;;;17.25;6.65;;;8.30;99.90;;;;;;5006349;28;20036;-88
2023/03/20 02:40:44;;;;;;;17.13;6.88;;;8.20;99.90;;;;;;5002287;28;20065;-88
2023/03/20 02:43:35;;;;;;;15.70;7.00;;;8.20;99.90;;;;;;4999090;28;20018;-88
2023/03/20 02:46:13;;;;;;;17.65;6.78;;;8.20;99.90;;;;;;5002783;28;20439;-88
2023/03/20 02:48:55;;;;;;;18.33;6.80;;;8.20;99.90;;;;;;5009329;28;20077;-87
2023/03/20 02:51:50;;;;;;;17.13;7.07;;;8.10;99.90;;;;;;5011558;28;20033;-88
2023/03/20 02:54:42;;;;;;;21.63;7.68;;;8.10;99.90;;;;;;5008679;28;20037;-87
2023/03/20 02:57:19;;;;;;;17.20;8.02;;;8.10;99.90;;;;;;5020654;28;20053;-89
2023/03/20 03:00:01;;;;;;;20.60;8.20;;;8.00;99.90;;;;;;4996338;28;20030;-87
2023/03/20 03:02:38;;;;;;;18.87;7.87;;;8.00;99.90;;;;;;5006927;28;20026;-88
2023/03/20 03:05:12;;;;;;;22.23;8.48;;;8.00;99.90;;;;;;5024148;28;20032;-88
2023/03/20 03:07:41;;;;;;;21.75;9.27;;;7.90;99.90;;;;;;5008906;28;20383;-88
2023/03/20 03:10:33;;;;;;;19.92;8.95;;;7.90;99.90;;;;;;5007987;28;20032;-88
2023/03/20 03:13:05;;;;;;;21.90;9.07;;;7.80;99.90;;;;;;4996352;28;20406;-86
2023/03/20 03:15:38;;;;;;;25.95;9.23;;;7.80;99.90;;;;;;5005846;28;20038;-88
2023/03/20 03:18:06;;;;;;;19.75;9.18;;;7.80;99.90;;;;;;5010206;28;20026;-88
2023/03/20 03:20:36;;;;;;;24.88;11.10;;;7.70;99.90;;;;;;5006815;28;20029;-87
2023/03/20 03:23:03;;;;;;;26.20;12.35;;;7.70;99.90;;;;;;5003749;28;20054;-87
2023/03/20 03:25:33;;;;;;;27.67;13.00;;;7.60;99.90;;;;;;4998352;28;20069;-88
2023/03/20 03:28:31;;;;;;;31.70;13.23;;;7.60;99.90;;;;;;5006440;28;20034;-87
2023/03/20 03:30:59;;;;;;;39.17;13.65;;;7.60;99.90;;;;;;4995416;28;20026;-88
2023/03/20 03:33:29;;;;;;;28.92;14.52;;;7.60;99.90;;;;;;5018759;28;20030;-88
2023/03/20 03:36:15;;;;;;;33.10;15.73;;;7.60;99.90;;;;;;5001875;28;20026;-88
2023/03/20 03:38:51;;;;;;;35.40;15.05;;;7.50;99.90;;;;;;5009282;28;20045;-89
2023/03/20 03:41:24;;;;;;;38.85;15.85;;;7.50;99.90;;;;;;5006874;28;20022;-88
2023/03/20 03:44:06;;;;;;;36.00;16.08;;;7.50;99.90;;;;;;5007248;28;20026;-88
2023/03/20 03:46:41;;;;;;;35.75;16.42;;;7.50;99.90;;;;;;5001434;28;20046;-87
2023/03/20 03:49:12;;;;;;;36.17;16.33;;;7.40;99.90;;;;;;5001520;28;20037;-88
2023/03/20 03:51:41;;;;;;;36.05;16.83;;;7.40;99.90;;;;;;5009470;28;20026;-88
2023/03/20 03:54:21;;;;;;;35.78;15.40;;;7.40;99.90;;;;;;5004754;28;20026;-88
2023/03/20 03:56:49;;;;;;;38.90;16.00;;;7.40;99.90;;;;;;4994722;28;20487;-88
2023/03/20 03:59:30;;;;;;;31.52;15.50;;;7.40;99.90;;;;;;5023586;28;20414;-88
2023/03/20 04:01:58;;;;;;;36.25;15.65;;;7.40;99.90;;;;;;5002518;28;20497;-86
2023/03/20 04:04:25;;;;;;;33.75;16.45;;;7.30;99.90;;;;;;5004933;28;20497;-87
2023/03/20 04:06:51;;;;;;;37.90;15.80;;;7.30;99.90;;;;;;5010123;28;20107;-87
2023/03/20 04:09:17;;;;;;;34.10;16.90;;;7.30;99.90;;;;;;5011270;28;20465;-88
2023/03/20 04:11:45;;;;;;;38.50;15.98;;;7.20;99.90;;;;;;5000682;28;20084;-87
2023/03/20 04:14:10;;;;;;;28.88;15.30;;;7.20;99.90;;;;;;5007034;28;20022;-87
2023/03/20 04:16:36;;;;;;;32.22;15.70;;;7.10;99.90;;;;;;5025286;28;20029;-88
2023/03/20 04:19:02;;;;;;;31.80;15.27;;;7.10;99.90;;;;;;5008672;28;20048;-88
2023/03/20 04:21:27;;;;;;;37.20;16.40;;;7.20;99.90;;;;;;5016493;28;20034;-86
2023/03/20 04:23:53;;;;;;;34.60;15.40;;;7.00;99.90;;;;;;5009103;28;20045;-88
2023/03/20 04:26:20;;;;;;;30.02;15.05;;;7.00;99.90;;;;;;5006589;28;20237;-88
2023/03/20 04:28:45;;;;;;;32.35;14.82;;;7.00;99.90;;;;;;5020371;28;20505;-88
2023/03/20 04:31:11;;;;;;;35.50;15.48;;;7.00;99.90;;;;;;5006527;28;20057;-88
2023/03/20 04:33:37;;;;;;;27.48;13.77;;;7.00;99.90;;;;;;5006316;28;20058;-88
2023/03/20 04:36:02;;;;;;;27.38;13.80;;;6.90;99.90;;;;;;5001386;28;20490;-88
2023/03/20 04:38:28;;;;;;;27.40;13.38;;;6.90;99.90;;;;;;5000387;28;20030;-87
2023/03/20 04:40:54;;;;;;;28.80;12.77;;;6.90;99.90;;;;;;5009212;28;20478;-88
2023/03/20 04:43:19;;;;;;;35.72;13.25;;;7.00;99.90;;;;;;5010926;28;20101;-87
2023/03/20 04:45:45;;;;;;;25.80;11.75;;;6.90;99.90;;;;;;5004408;28;20394;-88
2023/03/20 04:48:11;;;;;;;29.48;11.90;;;6.90;99.90;;;;;;5011716;28;20556;-87
2023/03/20 04:50:36;;;;;;;29.40;13.02;;;6.90;99.90;;;;;;5012404;28;20018;-87
2023/03/20 04:53:02;;;;;;;24.98;11.80;;;6.90;99.90;;;;;;5012153;28;20022;-87
2023/03/20 04:55:27;;;;;;;27.70;12.68;;;6.90;99.90;;;;;;5010762;28;20034;-87
2023/03/20 04:57:53;;;;;;;30.58;12.15;;;6.90;99.90;;;;;;5013877;28;20447;-87
2023/03/20 05:00:19;;;;;;;21.85;10.88;;;6.90;99.90;;;;;;5010847;28;20022;-86
2023/03/20 05:02:45;;;;;;;25.20;11.60;;;6.90;99.90;;;;;;5027046;28;20099;-88
2023/03/20 05:05:10;;;;;;;24.58;11.45;;;6.90;99.90;;;;;;5001048;28;20061;-88
2023/03/20 05:07:36;;;;;;;25.35;11.23;;;6.90;99.90;;;;;;5008052;28;20053;-88
2023/03/20 05:10:03;;;;;;;26.40;11.02;;;7.00;99.90;;;;;;5025593;28;20030;-88
2023/03/20 05:12:29;;;;;;;26.83;11.25;;;7.00;99.90;;;;;;5016508;28;20037;-88
2023/03/20 05:14:55;;;;;;;24.40;11.07;;;7.00;99.90;;;;;;5012791;28;20037;-87
2023/03/20 05:17:22;;;;;;;26.75;11.40;;;7.00;99.90;;;;;;5003848;28;20022;-87
2023/03/20 05:19:48;;;;;;;21.67;10.95;;;7.00;99.90;;;;;;5015771;28;20034;-87
2023/03/20 05:22:15;;;;;;;27.23;10.73;;;7.00;99.90;;;;;;5007691;28;20057;-88
2023/03/20 05:24:41;;;;;;;22.90;11.25;;;7.00;99.90;;;;;;5009789;28;20033;-87
2023/03/20 05:27:06;;;;;;;25.50;10.63;;;7.00;99.90;;;;;;5012587;28;20199;-88
2023/03/20 05:29:32;;;;;;;23.67;11.02;;;7.00;99.90;;;;;;5018379;28;20547;-87
2023/03/20 05:31:57;;;;;;;23.02;10.27;;;7.10;99.90;;;;;;5010483;28;20119;-87
2023/03/20 05:34:23;;;;;;;21.67;10.07;;;7.00;99.90;;;;;;5006570;28;20025;-88
2023/03/20 05:36:48;;;;;;;22.27;10.02;;;7.00;99.90;;;;;;5001906;28;20037;-88
2023/03/20 05:39:14;;;;;;;22.48;10.80;;;7.00;99.90;;;;;;5009368;28;20033;-87
2023/03/20 05:41:40;;;;;;;22.00;9.45;;;7.10;99.90;;;;;;5016000;28;20452;-88
2023/03/20 05:44:05;;;;;;;22.45;9.85;;;7.10;99.90;;;;;;5029173;28;20034;-86
2023/03/20 05:46:31;;;;;;;23.08;10.25;;;7.10;99.90;;;;;;5008176;28;20065;-88
2023/03/20 05:48:56;;;;;;;25.27;10.80;;;7.10;99.90;;;;;;5024129;28;20410;-87
2023/03/20 05:51:22;;;;;;;22.85;10.35;;;7.10;99.90;;;;;;5010905;28;20038;-87
2023/03/20 05:53:48;;;;;;;20.60;10.27;;;7.10;99.90;;;;;;5003795;28;20026;-87
2023/03/20 05:56:13;;;;;;;21.90;10.20;;;7.10;99.90;;;;;;5010360;28;20038;-87
2023/03/20 05:58:39;;;;;;;23.45;10.75;;;7.10;99.90;;;;;;5004755;28;20065;-85
2023/03/20 06:01:05;;;;;;;21.33;10.30;;;7.20;99.90;;;;;;5012558;28;20450;-88
2023/03/20 06:03:31;;;;;;;26.70;11.25;;;7.20;99.90;;;;;;5012506;28;20434;-87
2023/03/20 06:05:56;;;;;;;19.58;9.20;;;7.20;99.90;;;;;;5010104;28;20038;-87
2023/03/20 06:08:22;;;;;;;16.85;8.93;;;7.20;99.90;;;;;;5005438;28;20053;-88
2023/03/20 06:10:51;;;;;;;22.85;10.63;;;7.20;99.90;;;;;;5015637;28;20026;-88
2023/03/20 06:13:17;;;;;;;21.92;10.15;;;7.30;99.90;;;;;;5022328;28;20453;-88
2023/03/20 06:15:43;;;;;;;26.85;10.40;;;7.40;99.90;;;;;;5009314;28;20023;-87
2023/03/20 06:18:08;;;;;;;22.15;10.02;;;7.40;99.90;;;;;;5006189;28;20092;-88
2023/03/20 06:20:34;;;;;;;21.63;9.90;;;7.50;99.90;;;;;;5005166;28;20029;-88
2023/03/20 06:23:00;;;;;;;23.63;10.73;;;7.50;99.90;;;;;;5011428;28;20486;-88
2023/03/20 06:25:25;;;;;;;24.38;11.00;;;7.60;99.90;;;;;;4998757;28;20030;-87
2023/03/20 06:27:52;;;;;;;21.92;10.50;;;7.60;99.90;;;;;;5004483;28;20112;-88
2023/03/20 06:30:18;;;;;;;20.45;11.20;;;7.60;99.90;;;;;;5005610;28;20053;-87
2023/03/20 06:32:43;;;;;;;26.63;10.95;;;7.60;99.90;;;;;;5011656;28;20482;-86
2023/03/20 06:35:10;;;;;;;23.45;10.13;;;7.70;99.90;;;;;;5000963;28;20037;-87
2023/03/20 06:37:36;;;;;;;26.10;10.55;;;7.70;99.90;;;;;;5022291;28;20053;-87
2023/03/20 06:40:03;;;;;;;22.45;10.15;;;7.70;99.90;;;;;;5003773;28;20060;-87
2023/03/20 06:42:28;;;;;;;19.67;9.00;;;7.80;99.90;;;;;;5005797;28;20040;-88
2023/03/20 06:44:55;;;;;;;17.75;9.65;;;7.80;99.90;;;;;;5010170;28;20019;-86
2023/03/20 06:47:21;;;;;;;22.95;10.60;;;7.80;99.90;;;;;;5010879;28;20038;-88
2023/03/20 06:49:46;;;;;;;25.02;10.55;;;7.70;99.90;;;;;;5009476;28;20044;-88
2023/03/20 06:52:15;;;;;;;23.27;9.05;;;7.70;99.90;;;;;;5003642;28;20033;-88
2023/03/20 06:54:41;;;;;;;22.48;9.52;;;7.70;99.90;;;;;;5010826;28;20382;-88
2023/03/20 06:57:07;;;;;;;18.70;8.57;;;7.70;99.90;;;;;;5010292;28;20046;-88
2023/03/20 06:59:33;;;;;;;17.50;8.88;;;7.70;99.90;;;;;;5008303;28;20034;-87
2023/03/20 07:01:58;;;;;;;24.20;9.88;;;7.70;99.90;;;;;;5002949;28;20033;-88
2023/03/20 07:04:25;;;;;;;21.85;10.60;;;7.80;99.90;;;;;;5007735;28;20387;-88
2023/03/20 07:06:51;;;;;;;27.85;10.00;;;7.70;99.90;;;;;;5019649;28;20030;-88
2023/03/20 07:09:17;;;;;;;23.55;10.48;;;7.70;99.90;;;;;;4997859;28;20034;-87
2023/03/20 07:11:43;;;;;;;22.13;9.15;;;7.70;99.90;;;;;;5004116;28;20030;-88
2023/03/20 07:14:09;;;;;;;21.40;8.90;;;7.70;99.90;;;;;;5010201;28;20030;-88
2023/03/20 07:16:35;;;;;;;22.55;8.85;;;7.70;99.90;;;;;;5002202;28;20030;-89
2023/03/20 07:19:01;;;;;;;19.67;9.02;;;7.70;99.90;;;;;;5002788;28;20030;-88
2023/03/20 07:21:27;;;;;;;16.25;8.07;;;7.70;99.90;;;;;;5028235;28;20414;-88
2023/03/20 07:23:53;;;;;;;22.08;8.98;;;7.70;99.90;;;;;;5013874;28;20018;-89
2023/03/20 07:26:19;;;;;;;23.73;8.25;;;7.80;99.90;;;;;;5009595;28;20508;-88
2023/03/20 07:28:44;;;;;;;20.23;8.82;;;7.80;99.90;;;;;;5011908;28;20026;-88
2023/03/20 07:31:22;;;;;;;21.58;8.77;;;7.80;99.90;;;;;;5010640;28;20030;-88
2023/03/20 07:33:47;;;;;;;18.88;8.82;;;7.80;99.90;;;;;;5008444;28;20026;-88
2023/03/20 07:36:13;;;;;;;22.77;8.93;;;7.80;99.90;;;;;;5010387;28;20030;-87
2023/03/20 07:38:39;;;;;;;20.27;8.35;;;7.80;99.90;;;;;;5005329;28;20022;-87
2023/03/20 07:41:05;;;;;;;17.52;8.05;;;7.90;99.90;;;;;;5010503;28;20465;-88
2023/03/20 07:43:31;;;;;;;20.92;9.13;;;7.90;99.90;;;;;;5008999;28;20125;-87
2023/03/20 07:45:56;;;;;;;16.83;8.00;;;8.00;99.90;;;;;;5023619;28;20479;-86
2023/03/20 07:48:22;;;;;;;16.55;7.95;;;8.00;99.90;;;;;;5008191;28;20052;-87
2023/03/20 07:50:47;;;;;;;19.23;7.85;;;8.00;99.90;;;;;;5001244;28;20057;-87
2023/03/20 07:53:13;;;;;;;20.63;8.18;;;8.10;99.90;;;;;;5001107;28;20021;-88
2023/03/20 07:55:39;;;;;;;16.52;7.38;;;8.20;99.90;;;;;;5010549;28;20109;-87
2023/03/20 07:58:04;;;;;;;13.05;7.13;;;8.20;99.90;;;;;;5007057;28;20051;-88
2023/03/20 08:00:30;;;;;;;19.42;7.57;;;8.20;99.90;;;;;;5012723;28;20022;-88
2023/03/20 08:02:56;;;;;;;24.35;7.63;;;8.20;99.90;;;;;;5020634;28;20042;-89
2023/03/20 08:05:22;;;;;;;18.02;7.35;;;8.20;99.90;;;;;;5002068;28;20505;-89
2023/03/20 08:07:48;;;;;;;17.95;6.43;;;8.20;99.90;;;;;;5010479;28;20111;-88
2023/03/20 08:10:14;;;;;;;15.80;7.18;;;8.30;99.90;;;;;;5008772;28;20033;-88
2023/03/20 08:12:40;;;;;;;16.55;6.80;;;8.30;99.90;;;;;;4997256;28;20037;-89
2023/03/20 08:15:06;;;;;;;17.67;7.57;;;8.30;99.90;;;;;;5022535;28;20022;-89
2023/03/20 08:17:31;;;;;;;13.82;6.32;;;8.40;99.90;;;;;;5005862;28;20038;-88
2023/03/20 08:19:57;;;;;;;19.67;5.90;;;8.40;99.90;;;;;;5030392;28;20029;-86
2023/03/20 08:22:22;;;;;;;19.52;6.50;;;8.50;99.90;;;;;;5014109;28;20529;-87
2023/03/20 08:24:48;;;;;;;15.95;5.95;;;8.50;99.90;;;;;;5014031;28;20080;-88
2023/03/20 08:27:14;;;;;;;13.93;6.20;;;8.50;99.90;;;;;;5015185;28;20520;-88
2023/03/20 08:29:39;;;;;;;14.75;6.35;;;8.50;99.90;;;;;;5012920;28;20072;-87
2023/03/20 08:32:05;;;;;;;15.80;6.53;;;8.70;99.90;;;;;;5017468;28;20036;-87
2023/03/20 08:34:32;;;;;;;14.98;6.15;;;8.70;99.90;;;;;;5014742;28;20057;-87
2023/03/20 08:36:58;;;;;;;17.08;6.10;;;8.70;99.90;;;;;;5010313;28;20030;-87
2023/03/20 08:39:24;;;;;;;18.50;6.03;;;8.80;99.90;;;;;;5013197;28;20030;-88
2023/03/20 08:41:49;;;;;;;12.77;5.03;;;8.90;99.90;;;;;;4997574;28;20057;-88
2023/03/20 08:44:15;;;;;;;16.48;5.90;;;8.90;99.90;;;;;;5014366;28;20025;-89
2023/03/20 08:46:43;;;;;;;16.98;4.85;;;8.90;99.90;;;;;;5014448;28;20038;-88
2023/03/20 08:49:09;;;;;;;12.38;5.00;;;8.90;99.90;;;;;;5010704;28;20094;-88
2023/03/20 08:51:34;;;;;;;14.43;5.07;;;9.00;99.90;;;;;;5004242;28;20439;-88
2023/03/20 08:54:00;;;;;;;11.70;4.75;;;9.10;99.90;;;;;;5006364;28;20022;-87
2023/03/20 08:56:26;;;;;;;13.43;5.05;;;9.10;99.90;;;;;;5013977;28;20079;-88
2023/03/20 08:58:54;;;;;;;15.18;4.68;;;9.20;99.90;;;;;;5005619;28;20026;-87
2023/03/20 09:01:20;;;;;;;17.50;4.93;;;9.20;99.90;;;;;;5011366;28;20035;-88
2023/03/20 09:03:46;;;;;;;14.38;4.88;;;9.20;99.90;;;;;;5012736;28;20526;-87
2023/03/20 09:06:11;;;;;;;13.73;4.88;;;9.30;99.90;;;;;;5010971;28;20142;-88
2023/03/20 09:08:37;;;;;;;12.77;4.68;;;9.30;99.90;;;;;;5002353;28;20538;-86
2023/03/20 09:11:06;;;;;;;11.35;4.47;;;9.40;99.90;;;;;;5008221;28;20061;-87
2023/03/20 09:13:32;;;;;;;14.68;4.60;;;9.40;99.90;;;;;;5007647;28;20057;-86
2023/03/20 09:15:58;;;;;;;14.77;4.93;;;9.30;99.90;;;;;;5010739;28;20050;-87
2023/03/20 09:18:24;;;;;;;12.68;4.65;;;9.30;99.90;;;;;;5011967;28;20037;-87
2023/03/20 09:20:50;;;;;;;12.77;5.30;;;9.40;99.90;;;;;;5010078;28;20098;-86
2023/03/20 09:23:17;;;;;;;15.13;4.20;;;9.30;99.90;;;;;;5004760;28;20105;-87
2023/03/20 09:25:42;;;;;;;12.35;4.32;;;9.40;99.90;;;;;;5007437;28;20037;-87
2023/03/20 09:28:08;;;;;;;14.18;4.53;;;9.40;99.90;;;;;;5008348;28;20497;-87
2023/03/20 09:30:33;;;;;;;13.15;4.85;;;9.30;99.90;;;;;;5006201;28;20113;-88
2023/03/20 09:32:59;;;;;;;14.30;4.80;;;9.30;99.90;;;;;;5006823;28;20065;-87
2023/03/20 09:35:25;;;;;;;13.90;4.93;;;9.20;99.90;;;;;;5028367;28;20068;-88
2023/03/20 09:37:51;;;;;;;15.07;5.78;;;9.20;99.90;;;;;;5009520;28;20033;-87
2023/03/20 09:40:30;;;;;;;13.43;4.53;;;9.10;99.90;;;;;;5002248;28;20034;-88
2023/03/20 09:43:33;;;;;;;15.30;6.28;;;9.20;99.90;;;;;;4997668;28;20056;-88
2023/03/20 09:46:33;;;;;;;13.90;5.22;;;9.10;99.90;;;;;;5013007;28;20545;-88
2023/03/20 09:49:20;;;;;;;11.25;5.50;;;9.10;99.90;;;;;;5011690;28;20035;-88
2023/03/20 09:52:15;;;;;;;17.20;5.65;;;9.00;99.90;;;;;;5013702;28;20593;-87
2023/03/20 09:54:44;;;;;;;19.48;5.55;;;9.00;99.90;;;;;;4996530;28;20170;-89
2023/03/20 09:57:47;;;;;;;15.27;5.13;;;9.10;99.90;;;;;;4993545;28;20415;-88
2023/03/20 10:00:13;;;;;;;;;;;9.20;99.90;;;;;;4996320;28;20029;-88
2023/03/20 10:02:52;;;;;;;17.63;5.22;;;9.20;99.90;;;;;;5014161;28;20274;-88
2023/03/20 10:05:41;;;;;;;13.52;5.07;;;9.20;99.90;;;;;;5011507;28;20030;-88
2023/03/20 10:08:15;;;;;;;12.18;4.65;;;9.20;99.90;;;;;;5009422;28;20065;-88
2023/03/20 10:10:53;;;;;;;11.18;4.47;;;9.30;99.90;;;;;;5007251;28;20038;-89
2023/03/20 10:13:54;;;;;;;12.05;4.72;;;9.30;99.90;;;;;;5012217;28;20049;-88
2023/03/20 10:16:45;;;;;;;9.93;4.13;;;9.50;99.90;;;;;;5009316;28;20084;-89
2023/03/20 10:19:40;;;;;;;11.63;3.95;;;9.60;99.90;;;;;;4994817;28;20034;-88
2023/03/20 10:22:34;;;;;;;12.45;4.43;;;9.60;99.90;;;;;;5005320;28;20510;-88
2023/03/20 10:25:34;;;;;;;12.30;3.45;;;9.60;99.90;;;;;;4992994;28;20537;-89
2023/03/20 10:28:12;;;;;;;11.02;3.47;;;9.70;99.90;;;;;;5012354;28;20505;-88
2023/03/20 10:31:02;;;;;;;10.77;3.67;;;9.70;99.90;;;;;;5006532;28;20041;-89
2023/03/20 10:33:47;;;;;;;13.52;3.92;;;9.70;99.90;;;;;;5007729;28;20026;-89
2023/03/20 10:36:23;;;;;;;9.32;3.13;;;9.80;99.90;;;;;;5021876;28;20069;-88
2023/03/20 10:38:48;;;;;;;11.63;3.10;;;9.90;99.90;;;;;;5012415;28;20049;-89
2023/03/20 10:41:18;;;;;;;15.55;3.78;;;9.90;99.90;;;;;;5011669;28;20557;-88
2023/03/20 10:43:48;;;;;;;10.02;2.45;;;10.00;99.90;;;;;;5011977;28;20076;-88
2023/03/20 10:46:18;;;;;;;9.07;2.83;;;10.00;99.90;;;;;;5012025;28;20026;-88
2023/03/20 10:48:49;;;;;;;8.30;2.75;;;10.00;99.90;;;;;;5013160;28;20037;-88
2023/03/20 10:51:21;;;;;;;12.02;3.13;;;10.00;99.90;;;;;;5011914;28;20026;-88
2023/03/20 10:54:01;;;;;;;7.97;2.70;;;10.10;99.90;;;;;;5010970;28;20026;-88
2023/03/20 10:56:36;;;;;;;6.30;2.83;;;10.20;99.90;;;;;;5000128;28;20069;-89
2023/03/20 10:59:22;;;;;;;11.65;3.55;;;10.20;99.90;;;;;;5003829;28;20052;-88
2023/03/20 11:01:48;;;;;;;8.93;3.15;;;10.20;99.90;;;;;;5024668;28;20036;-88
2023/03/20 11:04:14;;;;;;;10.20;3.05;;;10.20;99.90;;;;;;5007205;28;20023;-87
2023/03/20 11:06:48;;;;;;;11.18;4.15;;;10.30;99.90;;;;;;5013455;28;20046;-90
2023/03/20 11:09:25;;;;;;;10.05;3.03;;;10.40;99.90;;;;;;5007603;28;20022;-89
2023/03/20 11:11:55;;;;;;;8.02;3.20;;;10.40;99.90;;;;;;4996208;28;20022;-88
2023/03/20 11:14:23;;;;;;;9.80;3.60;;;10.40;99.90;;;;;;4992646;28;20148;-86
2023/03/20 11:16:51;;;;;;;14.35;4.03;;;10.40;99.90;;;;;;4992038;28;20057;-89
2023/03/20 11:19:20;;;;;;;9.10;3.17;;;10.40;99.90;;;;;;5002638;28;20080;-88
2023/03/20 11:21:59;;;;;;;12.55;3.53;;;10.40;99.90;;;;;;5010410;28;20025;-89
2023/03/20 11:25:02;;;;;;;11.75;3.40;;;10.50;99.90;;;;;;4999601;28;20033;-88
2023/03/20 11:27:33;;;;;;;11.32;3.60;;;10.50;99.90;;;;;;4989998;28;20153;-89
2023/03/20 11:30:04;;;;;;;12.70;3.60;;;10.50;99.90;;;;;;5010548;28;20482;-87
2023/03/20 11:32:33;;;;;;;10.38;3.50;;;10.50;99.90;;;;;;5005633;28;20026;-88
2023/03/20 11:35:17;;;;;;;9.77;3.63;;;10.60;99.90;;;;;;5009307;28;20023;-87
2023/03/20 11:37:45;;;;;;;10.23;3.60;;;10.50;99.90;;;;;;5002943;28;20026;-87
2023/03/20 11:40:32;;;;;;;9.07;3.15;;;10.50;99.90;;;;;;5019420;28;20125;-88
2023/03/20 11:43:00;;;;;;;6.90;2.33;;;10.60;99.90;;;;;;5011025;28;20030;-88
2023/03/20 11:45:41;;;;;;;11.70;3.97;;;10.70;99.90;;;;;;5000286;28;20478;-88
2023/03/20 11:48:37;;;;;;;11.20;2.95;;;10.80;99.90;;;;;;5008679;28;20041;-86
2023/03/20 11:51:24;;;;;;;11.88;3.55;;;10.80;99.90;;;;;;5004535;28;20050;-88
2023/03/20 11:54:06;;;;;;;9.73;3.45;;;10.80;99.90;;;;;;5013061;28;20042;-87
2023/03/20 11:56:32;;;;;;;10.70;3.60;;;10.80;99.90;;;;;;5009884;28;20062;-87
2023/03/20 11:59:17;;;;;;;11.18;4.35;;;10.80;99.90;;;;;;5011730;28;20046;-87
2023/03/20 12:01:49;;;;;;;11.95;3.60;;;10.90;99.90;;;;;;5010806;28;20022;-87
2023/03/20 12:04:18;;;;;;;10.18;3.45;;;10.90;99.90;;;;;;5011849;28;20410;-87
2023/03/20 12:06:46;;;;;;;15.23;4.00;;;11.00;99.90;;;;;;5002915;28;20483;-87
2023/03/20 12:09:54;;;;;;;10.85;3.92;;;11.10;99.90;;;;;;5011153;28;20030;-87
2023/03/20 12:12:22;;;;;;;9.45;3.55;;;11.20;99.90;;;;;;5013941;28;20041;-87
2023/03/20 12:14:59;;;;;;;10.38;4.13;;;11.20;99.90;;;;;;5015296;28;20033;-86
2023/03/20 12:17:43;;;;;;;12.25;3.83;;;11.20;99.90;;;;;;4995442;28;20085;-86
2023/03/20 12:20:33;;;;;;;15.27;4.35;;;11.10;99.90;;;;;;5014673;28;20578;-87
2023/03/20 12:23:10;;;;;;;15.35;4.22;;;11.20;99.90;;;;;;5002791;28;20029;-87
2023/03/20 12:25:40;;;;;;;13.75;4.50;;;11.10;99.90;;;;;;5010001;28;20026;-88
2023/03/20 12:28:40;;;;;;;12.02;4.18;;;11.00;99.90;;;;;;5012821;28;20041;-88
2023/03/20 12:31:21;;;;;;;11.93;4.00;;;11.10;99.90;;;;;;5005365;28;20030;-88
2023/03/20 12:34:22;;;;;;;13.20;4.45;;;11.10;99.90;;;;;;5013739;28;20045;-87
2023/03/20 12:36:51;;;;;;;15.57;4.43;;;11.10;99.90;;;;;;4995514;28;20084;-88
2023/03/20 12:39:28;;;;;;;14.52;4.25;;;11.20;99.90;;;;;;5013572;28;20124;-87
2023/03/20 12:42:08;;;;;;;11.43;4.28;;;11.10;99.90;;;;;;5013621;28;20018;-88
2023/03/20 12:44:52;;;;;;;11.25;4.10;;;11.10;99.90;;;;;;5010638;28;20035;-88
2023/03/20 12:47:47;;;;;;;14.75;5.28;;;11.10;99.90;;;;;;5000368;28;20049;-88
2023/03/20 12:50:34;;;;;;;9.32;4.45;;;11.10;99.90;;;;;;5006265;28;20444;-87
2023/03/20 12:53:37;;;;;;;11.05;4.05;;;11.10;99.90;;;;;;5015281;28;20394;-87
2023/03/20 12:56:15;;;;;;;;;;;11.20;99.90;;;;;;5008958;28;20038;-88
2023/03/20 12:58:51;;;;;;;11.00;3.60;;;11.20;99.90;;;;;;5011532;28;19929;-88
2023/03/20 13:01:29;;;;;;;14.73;4.25;;;11.20;99.90;;;;;;5025412;28;20101;-89
2023/03/20 13:04:32;;;;;;;18.38;5.28;;;11.20;99.90;;;;;;5012688;28;20053;-88
2023/03/20 13:07:10;;;;;;;12.55;4.55;;;11.20;99.90;;;;;;5025034;28;20173;-88